This is the latest recevied weather packets stored in our database for station/object EA5FOG-11. If no packets are shown the sender has not sent any weather packets the latest 10 day(s).
| Time | Temp. | Humidity | Pressure | Rain* | Wind** | Luminosity | Snow |
|---|---|---|---|---|---|---|---|
| 1777822421 | 27.22° C | 48% | 953.9 hPa | - | - | - | - |
| 1777821520 | 31.11° C | 45% | 953.7 hPa | - | - | - | - |
| 1777820620 | 31.11° C | 45% | 953.8 hPa | - | - | - | - |
| 1777819719 | 32.22° C | 45% | 954 hPa | - | - | - | - |
| 1777818818 | 33.33° C | 44% | 954.1 hPa | - | - | - | - |
| 1777817917 | 33.89° C | 44% | 954.4 hPa | - | - | - | - |
| 1777817016 | 31.11° C | 48% | 954.7 hPa | - | - | - | - |
| 1777816116 | 31.67° C | 48% | 954.9 hPa | - | - | - | - |
| 1777815215 | 29.44° C | 50% | 955.1 hPa | - | - | - | - |
| 1777814314 | 28.89° C | 51% | 955.2 hPa | - | - | - | - |
| 1777813413 | 27.78° C | 54% | 955.3 hPa | - | - | - | - |
| 1777812512 | 27.22° C | 54% | 955.5 hPa | - | - | - | - |
| 1777811612 | 27.78° C | 55% | 956 hPa | - | - | - | - |
| 1777810711 | 26.67° C | 57% | 956.2 hPa | - | - | - | - |
| 1777809810 | 23.89° C | 59% | 956.4 hPa | - | - | - | - |
| 1777808909 | 23.33° C | 59% | 956.9 hPa | - | - | - | - |
| 1777808008 | 25° C | 59% | 957.1 hPa | - | - | - | - |
| 1777807108 | 25° C | 59% | 957.3 hPa | - | - | - | - |
| 1777806224 | 24.44° C | 60% | 957.4 hPa | - | - | - | - |
| 1777805323 | 22.22° C | 61% | 957.4 hPa | - | - | - | - |
| 1777804423 | 21.67° C | 62% | 957.5 hPa | - | - | - | - |
| 1777803522 | 22.78° C | 61% | 957.7 hPa | - | - | - | - |
| 1777802621 | 23.33° C | 62% | 957.8 hPa | - | - | - | - |
| 1777801720 | 23.33° C | 63% | 957.8 hPa | - | - | - | - |
| 1777800819 | 22.78° C | 64% | 958.1 hPa | - | - | - | - |
* Rain since midnight (hover to see other rain measurements)
** Current wind speed in m/s (hover to see current wind gust speed)